Time;durP1;ratioP1;P1;durP2;ratioP2;P2;SDS_P1;SDS_P2;PMS_P1;PMS_P2;Temp;Humidity;BMP_temperature;BMP_pressure;BME280_temperature;BME280_humidity;BME280_pressure;Samples;Min_cycle;Max_cycle;Signal;HPM_P1;HPM_P2
2023/05/05 00:01:34;;;;;;;1.25;1.00;;;18.10;60.80;;;;;;4143623;28;20450;-54
2023/05/05 00:03:56;;;;;;;2.42;1.10;;;18.20;61.00;;;;;;4141929;28;20072;-55
2023/05/05 00:06:18;;;;;;;2.22;1.35;;;18.20;61.00;;;;;;4145226;28;20039;-55
2023/05/05 00:08:41;;;;;;;1.23;1.10;;;18.20;61.00;;;;;;4142953;28;20048;-58
2023/05/05 00:11:04;;;;;;;1.85;1.20;;;18.30;60.90;;;;;;4144803;28;20172;-54
2023/05/05 00:13:26;;;;;;;3.13;1.10;;;18.30;60.70;;;;;;4141867;28;20132;-54
2023/05/05 00:15:50;;;;;;;1.40;0.90;;;18.30;60.60;;;;;;4142511;28;20045;-51
2023/05/05 00:18:13;;;;;;;;;;;18.30;61.00;;;;;;4143954;28;20115;-50
2023/05/05 00:20:36;;;;;;;1.20;1.00;;;18.30;60.60;;;;;;4117510;28;19925;-58
2023/05/05 00:22:58;;;;;;;1.70;1.08;;;18.40;60.60;;;;;;4140278;28;20058;-58
2023/05/05 00:25:21;;;;;;;5.40;1.45;;;18.40;60.70;;;;;;4137752;28;20183;-48
2023/05/05 00:27:43;;;;;;;1.20;0.88;;;18.40;60.50;;;;;;4140951;28;20069;-50
2023/05/05 00:30:10;;;;;;;2.38;1.00;;;18.40;60.20;;;;;;4126145;28;20106;-50
2023/05/05 00:32:32;;;;;;;1.90;1.05;;;18.40;59.70;;;;;;4140617;28;20046;-50
2023/05/05 00:34:55;;;;;;;1.35;0.70;;;18.40;59.50;;;;;;4136719;28;20033;-54
2023/05/05 00:37:17;;;;;;;1.48;0.90;;;18.40;59.40;;;;;;4142191;28;20093;-49
2023/05/05 00:39:40;;;;;;;1.30;0.98;;;18.30;59.30;;;;;;4120543;28;20054;-46
2023/05/05 00:42:02;;;;;;;1.80;1.10;;;18.40;59.30;;;;;;4140922;28;20052;-53
2023/05/05 00:44:41;;;;;;;2.25;0.80;;;18.30;59.20;;;;;;4141199;28;20107;-48
2023/05/05 00:47:04;;;;;;;7.50;1.23;;;18.40;60.00;;;;;;4140222;28;20073;-55
2023/05/05 00:49:26;;;;;;;3.65;1.10;;;18.40;60.30;;;;;;4142852;28;20084;-46
2023/05/05 00:51:49;;;;;;;1.67;1.02;;;18.40;60.50;;;;;;4143915;28;20038;-52
2023/05/05 00:54:11;;;;;;;1.50;1.10;;;18.50;60.60;;;;;;4137705;28;20354;-50
2023/05/05 00:56:34;;;;;;;1.70;1.05;;;18.50;60.50;;;;;;4143457;28;20046;-47
2023/05/05 00:58:58;;;;;;;1.73;0.70;;;18.60;60.50;;;;;;4141692;28;20529;-51
2023/05/05 01:01:20;;;;;;;1.95;0.90;;;18.60;60.40;;;;;;4141784;28;20516;-50
2023/05/05 01:03:42;;;;;;;1.23;0.77;;;18.70;60.40;;;;;;4116441;28;20058;-52
2023/05/05 01:06:15;;;;;;;2.15;0.90;;;18.70;60.30;;;;;;4139490;28;20038;-50
2023/05/05 01:08:49;;;;;;;2.20;0.80;;;18.80;60.50;;;;;;4140655;28;20052;-50
2023/05/05 01:11:26;;;;;;;1.48;0.90;;;18.80;60.50;;;;;;4142196;28;20034;-45
2023/05/05 01:14:08;;;;;;;2.33;0.68;;;18.80;60.40;;;;;;4142061;28;20590;-48
2023/05/05 01:16:36;;;;;;;0.98;0.68;;;18.80;60.00;;;;;;4142756;28;20069;-49
2023/05/05 01:19:13;;;;;;;1.92;1.40;;;18.80;59.60;;;;;;4138737;28;20033;-56
2023/05/05 01:21:45;;;;;;;2.33;1.50;;;18.80;59.80;;;;;;4144332;28;20089;-48
2023/05/05 01:24:29;;;;;;;1.55;1.00;;;18.80;60.60;;;;;;4144329;28;20042;-56
2023/05/05 01:27:38;;;;;;;2.55;0.93;;;18.80;60.90;;;;;;4133992;28;20125;-46
2023/05/05 01:30:18;;;;;;;2.05;0.93;;;18.90;60.90;;;;;;4142271;28;20044;-58
2023/05/05 01:32:50;;;;;;;2.88;1.30;;;18.90;60.40;;;;;;4141711;28;20041;-53
2023/05/05 01:35:20;;;;;;;1.73;0.90;;;18.90;60.40;;;;;;4140016;28;20052;-48
2023/05/05 01:38:20;;;;;;;2.45;1.00;;;19.00;60.50;;;;;;4141836;28;20034;-50
2023/05/05 01:41:08;;;;;;;1.27;1.00;;;19.10;60.40;;;;;;4125485;28;20101;-47
2023/05/05 01:43:35;;;;;;;1.60;0.90;;;19.20;60.40;;;;;;4119862;28;20054;-48
2023/05/05 01:45:59;;;;;;;2.10;0.90;;;19.20;60.30;;;;;;4125747;28;20034;-54
2023/05/05 01:48:23;;;;;;;3.80;0.77;;;19.30;60.20;;;;;;4121323;28;20045;-51
2023/05/05 01:50:47;;;;;;;1.77;0.80;;;19.30;59.70;;;;;;4123887;28;20117;-45
2023/05/05 01:53:10;;;;;;;;;;;19.40;60.10;;;;;;4121391;28;20114;-52
2023/05/05 01:55:35;;;;;;;2.25;1.10;;;19.40;59.70;;;;;;4127271;28;19984;-49
2023/05/05 01:57:58;;;;;;;1.60;0.93;;;19.30;59.30;;;;;;4118694;28;20045;-48
2023/05/05 02:00:23;;;;;;;2.85;1.23;;;19.30;59.10;;;;;;4125825;28;20420;-47
2023/05/05 02:02:49;;;;;;;1.15;0.90;;;19.30;59.00;;;;;;4126666;28;20100;-51
2023/05/05 02:05:12;;;;;;;1.52;1.15;;;19.30;59.00;;;;;;4123110;28;20049;-46
2023/05/05 02:07:35;;;;;;;1.77;1.20;;;19.30;58.90;;;;;;4121241;28;20042;-50
2023/05/05 02:09:59;;;;;;;3.03;1.10;;;19.30;58.90;;;;;;4115838;28;20296;-53
2023/05/05 02:12:22;;;;;;;3.35;1.45;;;19.30;59.10;;;;;;4124028;28;20026;-53
2023/05/05 02:14:46;;;;;;;4.07;1.42;;;19.30;59.30;;;;;;4125999;28;20042;-53
2023/05/05 02:17:09;;;;;;;2.00;1.00;;;19.30;59.50;;;;;;4121456;28;20457;-58
2023/05/05 02:19:39;;;;;;;3.78;1.13;;;19.40;59.60;;;;;;4121701;28;20042;-54
2023/05/05 02:22:02;;;;;;;2.90;1.20;;;19.40;59.70;;;;;;4125013;28;20034;-48
2023/05/05 02:24:25;;;;;;;6.07;1.40;;;19.40;59.80;;;;;;4127043;28;20058;-48
2023/05/05 02:26:51;;;;;;;5.03;1.65;;;19.50;60.00;;;;;;4124847;28;20038;-49
2023/05/05 02:29:26;;;;;;;34.22;2.70;;;19.50;59.90;;;;;;4120493;28;20046;-46
2023/05/05 02:31:56;;;;;;;3.67;1.40;;;19.50;60.00;;;;;;4124567;28;20593;-51
2023/05/05 02:34:24;;;;;;;4.65;1.40;;;19.60;60.10;;;;;;4122060;28;20261;-50
2023/05/05 02:36:50;;;;;;;5.85;1.40;;;19.60;60.00;;;;;;4122614;28;20410;-46
2023/05/05 02:39:43;;;;;;;6.40;1.42;;;19.60;60.00;;;;;;4122500;28;20084;-54
2023/05/05 02:42:10;;;;;;;5.53;1.80;;;19.60;60.20;;;;;;4135329;28;20038;-51
2023/05/05 02:44:33;;;;;;;8.98;2.15;;;19.60;60.50;;;;;;4130438;28;20140;-48
2023/05/05 02:46:57;;;;;;;5.53;1.50;;;19.60;60.70;;;;;;4141018;28;20053;-54
2023/05/05 02:49:19;;;;;;;5.03;1.45;;;19.60;60.80;;;;;;4139641;28;20038;-50
2023/05/05 02:51:42;;;;;;;6.50;1.58;;;19.60;60.80;;;;;;4137181;28;20026;-50
2023/05/05 02:54:04;;;;;;;16.52;1.98;;;19.60;60.90;;;;;;4138665;28;20038;-60
2023/05/05 02:56:44;;;;;;;14.02;2.17;;;19.60;61.10;;;;;;4143262;28;20124;-60
2023/05/05 02:59:19;;;;;;;6.25;2.00;;;19.60;61.20;;;;;;4141516;28;20545;-65
2023/05/05 03:01:56;;;;;;;7.22;2.13;;;19.70;61.40;;;;;;4137390;28;20456;-63
2023/05/05 03:04:24;;;;;;;7.70;1.80;;;19.80;61.30;;;;;;4141947;28;20084;-64
2023/05/05 03:06:50;;;;;;;4.22;1.85;;;19.80;61.20;;;;;;4142938;28;20030;-64
2023/05/05 03:09:39;;;;;;;6.22;1.50;;;19.90;61.00;;;;;;4135545;28;20532;-62
2023/05/05 03:12:03;;;;;;;9.98;1.77;;;20.00;61.00;;;;;;4141870;28;20034;-66
2023/05/05 03:14:29;;;;;;;3.03;1.70;;;20.00;60.90;;;;;;4135544;28;20046;-64
2023/05/05 03:16:55;;;;;;;2.85;1.40;;;20.10;60.80;;;;;;4143636;28;20038;-69
2023/05/05 03:19:20;;;;;;;4.55;1.73;;;20.10;60.80;;;;;;4142065;28;20045;-66
2023/05/05 03:21:43;;;;;;;5.03;1.65;;;20.10;60.80;;;;;;4143896;28;20068;-66
2023/05/05 03:24:19;;;;;;;4.53;1.55;;;20.20;60.80;;;;;;4136307;28;20137;-68
2023/05/05 03:26:42;;;;;;;3.15;1.42;;;20.20;60.70;;;;;;4121110;28;20082;-66
2023/05/05 03:29:05;;;;;;;3.27;1.77;;;20.30;60.80;;;;;;4145163;28;20267;-67
2023/05/05 03:31:28;;;;;;;5.50;1.60;;;20.40;60.70;;;;;;4145615;28;20286;-69
2023/05/05 03:33:50;;;;;;;3.10;1.40;;;20.40;60.50;;;;;;4138234;28;20073;-67
2023/05/05 03:36:13;;;;;;;5.88;1.50;;;20.50;60.60;;;;;;4144461;28;20049;-63
2023/05/05 03:38:35;;;;;;;9.68;2.17;;;20.60;60.60;;;;;;4147307;28;20056;-67
2023/05/05 03:41:01;;;;;;;6.47;1.63;;;20.60;60.40;;;;;;4143856;28;20057;-65
2023/05/05 03:43:23;;;;;;;5.57;1.83;;;20.70;60.30;;;;;;4139218;28;20049;-67
2023/05/05 03:45:45;;;;;;;5.82;2.13;;;20.70;60.20;;;;;;4141474;28;20057;-66
2023/05/05 03:48:08;;;;;;;6.32;2.00;;;20.80;60.20;;;;;;4143890;28;20041;-64
2023/05/05 03:50:31;;;;;;;6.63;1.92;;;20.90;60.10;;;;;;4139540;28;20034;-66
2023/05/05 03:52:54;;;;;;;4.65;2.20;;;20.90;59.90;;;;;;4144111;28;20124;-67
2023/05/05 03:55:16;;;;;;;4.05;2.05;;;21.00;59.90;;;;;;4144123;28;20212;-67
2023/05/05 03:57:38;;;;;;;6.95;2.33;;;21.10;59.90;;;;;;4144706;28;20045;-67
2023/05/05 04:00:01;;;;;;;4.93;2.17;;;21.10;59.70;;;;;;4137818;28;20124;-65
2023/05/05 04:02:24;;;;;;;7.20;2.30;;;21.20;59.60;;;;;;4144731;28;20042;-54
2023/05/05 04:04:46;;;;;;;4.35;2.20;;;21.30;59.40;;;;;;4146153;28;20038;-67
2023/05/05 04:07:10;;;;;;;4.28;2.13;;;21.40;59.10;;;;;;4145037;28;20038;-66
2023/05/05 04:09:32;;;;;;;4.07;2.30;;;21.40;59.10;;;;;;4128354;28;20485;-70
2023/05/05 04:11:54;;;;;;;5.88;2.30;;;21.50;59.10;;;;;;4140466;28;20041;-67
2023/05/05 04:14:17;;;;;;;4.90;2.00;;;21.60;58.90;;;;;;4152959;28;20095;-68
2023/05/05 04:16:39;;;;;;;3.97;1.88;;;21.70;59.40;;;;;;4145309;28;20077;-68
2023/05/05 04:19:02;;;;;;;5.65;2.25;;;21.80;58.60;;;;;;4145010;28;20088;-68
2023/05/05 04:21:25;;;;;;;3.72;1.65;;;21.90;58.40;;;;;;4144885;28;20128;-66
2023/05/05 04:23:47;;;;;;;8.15;2.05;;;22.00;58.30;;;;;;4136940;28;20056;-68
2023/05/05 04:26:10;;;;;;;5.03;2.35;;;22.10;58.20;;;;;;4141822;28;20466;-67
2023/05/05 04:28:32;;;;;;;4.18;2.17;;;22.10;58.00;;;;;;4143484;28;20046;-66
2023/05/05 04:30:55;;;;;;;3.65;1.70;;;22.20;57.80;;;;;;4126753;28;20096;-66
2023/05/05 04:33:17;;;;;;;5.47;2.03;;;22.30;57.80;;;;;;4145184;28;20037;-65
2023/05/05 04:35:39;;;;;;;4.10;1.88;;;22.30;57.70;;;;;;4140317;28;20080;-66
2023/05/05 04:38:02;;;;;;;4.00;2.20;;;22.40;57.70;;;;;;4144064;28;20406;-68
2023/05/05 04:40:25;;;;;;;2.50;1.60;;;22.50;57.40;;;;;;4137147;28;20069;-67
2023/05/05 04:42:47;;;;;;;5.47;1.95;;;22.60;57.20;;;;;;4142806;28;20042;-66
2023/05/05 04:45:10;;;;;;;4.78;1.80;;;22.70;57.00;;;;;;4138374;28;20077;-68
2023/05/05 04:47:37;;;;;;;3.93;2.03;;;22.80;56.90;;;;;;4142346;28;20041;-65
2023/05/05 04:50:00;;;;;;;5.80;1.90;;;22.80;56.70;;;;;;4126320;28;20046;-62
2023/05/05 04:52:22;;;;;;;6.63;2.28;;;22.90;56.60;;;;;;4142095;28;20401;-66
2023/05/05 04:54:44;;;;;;;4.93;1.75;;;23.00;56.20;;;;;;4142228;28;20555;-67
2023/05/05 04:57:07;;;;;;;6.28;1.80;;;23.00;56.20;;;;;;4143641;28;20174;-63
2023/05/05 04:59:30;;;;;;;4.35;2.25;;;23.00;56.00;;;;;;4143853;28;20046;-64
2023/05/05 05:01:52;;;;;;;2.72;1.45;;;23.00;55.90;;;;;;4141543;28;20037;-66
2023/05/05 05:04:17;;;;;;;4.28;1.50;;;23.10;56.00;;;;;;4133387;28;20360;-61
2023/05/05 05:06:39;;;;;;;3.25;1.40;;;23.20;55.70;;;;;;4139971;28;20050;-64
2023/05/05 05:09:02;;;;;;;3.15;1.40;;;23.20;55.50;;;;;;4141957;28;20033;-63
2023/05/05 05:11:24;;;;;;;4.72;1.70;;;23.30;55.40;;;;;;4138577;28;20519;-64
2023/05/05 05:13:47;;;;;;;2.65;1.65;;;23.40;55.40;;;;;;4141583;28;20034;-66
2023/05/05 05:16:10;;;;;;;5.38;1.52;;;23.40;55.30;;;;;;4140865;28;20116;-61
2023/05/05 05:18:32;;;;;;;3.67;1.50;;;23.40;55.30;;;;;;4140189;28;20117;-64
2023/05/05 05:20:55;;;;;;;3.28;1.25;;;23.40;55.40;;;;;;4141658;28;20283;-63
2023/05/05 05:23:17;;;;;;;3.88;1.40;;;23.50;55.20;;;;;;4141983;28;20056;-63
2023/05/05 05:25:40;;;;;;;4.22;1.38;;;23.50;54.90;;;;;;4142910;28;20715;-65
2023/05/05 05:28:02;;;;;;;4.18;1.65;;;23.60;54.90;;;;;;4138223;28;20386;-63
2023/05/05 05:30:24;;;;;;;3.17;1.27;;;23.60;54.70;;;;;;4140898;28;20121;-65
2023/05/05 05:32:47;;;;;;;2.45;1.30;;;23.60;54.50;;;;;;4142357;28;20052;-67
2023/05/05 05:35:09;;;;;;;4.45;1.27;;;23.60;54.20;;;;;;4138886;28;20526;-64
2023/05/05 05:37:33;;;;;;;3.05;1.40;;;23.70;54.20;;;;;;4142135;28;20048;-66
2023/05/05 05:39:55;;;;;;;2.95;1.48;;;23.70;54.00;;;;;;4143464;28;20057;-66
2023/05/05 05:42:18;;;;;;;4.38;1.40;;;23.70;53.90;;;;;;4141062;28;20046;-66
2023/05/05 05:44:40;;;;;;;3.85;1.50;;;23.80;53.70;;;;;;4137613;28;20050;-64
2023/05/05 05:47:03;;;;;;;3.03;1.40;;;23.80;53.50;;;;;;4136611;28;20033;-62
2023/05/05 05:49:25;;;;;;;3.17;1.20;;;23.80;53.50;;;;;;4141517;28;20049;-65
2023/05/05 05:51:47;;;;;;;2.10;1.33;;;23.80;53.70;;;;;;4135579;28;20129;-66
2023/05/05 05:54:10;;;;;;;3.90;1.80;;;23.70;53.90;;;;;;4143055;28;20038;-65
2023/05/05 05:56:32;;;;;;;4.22;1.48;;;23.60;54.00;;;;;;4128938;28;20034;-68
2023/05/05 05:58:55;;;;;;;3.30;1.50;;;23.60;54.10;;;;;;4142621;28;20045;-66
2023/05/05 06:01:18;;;;;;;2.75;1.50;;;23.50;54.10;;;;;;4134201;28;20034;-64
2023/05/05 06:03:41;;;;;;;3.17;1.45;;;23.50;54.40;;;;;;4129405;28;20536;-68
2023/05/05 06:06:03;;;;;;;3.70;1.38;;;23.50;55.20;;;;;;4125838;28;20527;-64
2023/05/05 06:08:25;;;;;;;3.20;1.40;;;23.50;54.60;;;;;;4143080;28;20068;-66
2023/05/05 06:10:48;;;;;;;3.50;1.42;;;23.50;54.70;;;;;;4143500;28;20033;-66
2023/05/05 06:13:10;;;;;;;3.83;1.70;;;23.50;54.60;;;;;;4137123;28;20034;-63
2023/05/05 06:15:33;;;;;;;4.07;1.80;;;23.50;54.60;;;;;;4140960;28;20037;-63
2023/05/05 06:17:55;;;;;;;4.35;1.45;;;23.40;54.60;;;;;;4143256;28;20839;-66
2023/05/05 06:20:18;;;;;;;2.40;1.20;;;23.40;54.60;;;;;;4141252;28;20116;-63
2023/05/05 06:22:40;;;;;;;3.10;1.50;;;23.50;54.70;;;;;;4142302;28;20097;-63
2023/05/05 06:25:03;;;;;;;2.83;1.27;;;23.40;54.70;;;;;;4140536;28;20040;-62
2023/05/05 06:27:25;;;;;;;3.25;1.52;;;23.40;54.80;;;;;;4136160;28;20038;-66
2023/05/05 06:29:48;;;;;;;3.58;1.67;;;23.40;54.90;;;;;;4140848;28;20212;-64
2023/05/05 06:32:11;;;;;;;3.42;1.30;;;23.50;54.90;;;;;;4122098;28;20064;-65
2023/05/05 06:34:34;;;;;;;5.15;1.58;;;23.50;54.70;;;;;;4120430;28;20361;-63
2023/05/05 06:36:56;;;;;;;3.78;1.52;;;23.40;54.70;;;;;;4129015;28;20091;-65
2023/05/05 06:39:18;;;;;;;2.70;1.20;;;23.40;55.00;;;;;;4139497;28;20398;-64
2023/05/05 06:41:41;;;;;;;3.35;1.58;;;23.40;55.10;;;;;;4142702;28;20042;-66
2023/05/05 06:44:04;;;;;;;3.33;1.13;;;23.30;55.20;;;;;;4120868;28;20530;-63
2023/05/05 06:46:26;;;;;;;3.42;1.58;;;23.30;55.40;;;;;;4140439;28;20037;-64
2023/05/05 06:48:49;;;;;;;3.20;1.13;;;23.30;55.60;;;;;;4143705;28;20034;-66
2023/05/05 06:51:11;;;;;;;2.78;1.38;;;23.20;55.70;;;;;;4135737;28;20236;-71
2023/05/05 06:53:34;;;;;;;1.95;1.25;;;23.20;56.40;;;;;;4141396;28;20042;-67
2023/05/05 06:55:56;;;;;;;2.97;1.60;;;23.20;55.90;;;;;;4142884;28;20528;-63
2023/05/05 06:58:19;;;;;;;3.65;1.30;;;23.20;56.00;;;;;;4138568;28;20030;-66
2023/05/05 07:00:42;;;;;;;3.95;1.77;;;23.10;56.00;;;;;;4126902;28;20530;-59
2023/05/05 07:03:04;;;;;;;2.80;1.27;;;23.10;56.00;;;;;;4140942;28;20067;-59
2023/05/05 07:05:27;;;;;;;2.85;1.50;;;23.10;55.60;;;;;;4141172;28;20041;-63
2023/05/05 07:07:54;;;;;;;3.33;1.00;;;23.10;55.40;;;;;;4143831;28;20567;-61
2023/05/05 07:10:16;;;;;;;3.75;1.38;;;23.00;55.70;;;;;;4140954;28;20046;-60
2023/05/05 07:12:39;;;;;;;2.78;1.40;;;23.00;56.00;;;;;;4144552;28;20034;-64
2023/05/05 07:15:02;;;;;;;5.18;1.80;;;23.00;56.10;;;;;;4141625;28;20131;-62
2023/05/05 07:17:24;;;;;;;3.58;1.40;;;23.00;56.10;;;;;;4142613;28;20061;-58
2023/05/05 07:19:47;;;;;;;2.60;1.25;;;23.00;56.20;;;;;;4144493;28;20398;-60
2023/05/05 07:22:09;;;;;;;2.60;1.50;;;22.90;56.20;;;;;;4143540;28;20120;-59
2023/05/05 07:24:32;;;;;;;3.95;1.52;;;22.90;56.20;;;;;;4142535;28;20046;-62
2023/05/05 07:26:54;;;;;;;1.85;1.17;;;22.80;56.30;;;;;;4140894;28;20306;-58
2023/05/05 07:29:16;;;;;;;2.08;1.27;;;22.80;56.20;;;;;;4140348;28;20070;-61
2023/05/05 07:31:39;;;;;;;3.10;1.00;;;22.80;56.60;;;;;;4139805;28;20041;-62
2023/05/05 07:34:01;;;;;;;2.40;1.27;;;22.80;56.50;;;;;;4138011;28;20042;-59
2023/05/05 07:36:24;;;;;;;5.00;1.48;;;22.80;56.30;;;;;;4142143;28;20512;-64
2023/05/05 07:38:46;;;;;;;3.17;1.35;;;22.80;56.50;;;;;;4139974;28;20066;-69
2023/05/05 07:41:10;;;;;;;4.07;1.50;;;22.80;57.00;;;;;;4139821;28;20050;-68
2023/05/05 07:43:32;;;;;;;3.35;1.15;;;22.70;57.30;;;;;;4123162;28;20049;-64
2023/05/05 07:45:55;;;;;;;4.00;1.55;;;22.70;57.50;;;;;;4126951;28;20098;-65
2023/05/05 07:48:17;;;;;;;4.75;1.55;;;22.70;57.40;;;;;;4142725;28;20056;-64
2023/05/05 07:50:40;;;;;;;5.47;1.35;;;22.70;57.50;;;;;;4136917;28;20034;-68
2023/05/05 07:53:02;;;;;;;4.68;1.50;;;22.70;57.60;;;;;;4125380;28;20046;-69
2023/05/05 07:55:25;;;;;;;2.83;1.10;;;22.70;57.70;;;;;;4143519;28;20038;-67
2023/05/05 07:57:48;;;;;;;3.40;1.38;;;22.70;57.80;;;;;;4122802;28;20502;-64
2023/05/05 08:00:12;;;;;;;2.80;1.30;;;22.70;57.90;;;;;;4142077;28;20037;-67
2023/05/05 08:02:34;;;;;;;2.45;1.30;;;22.70;58.00;;;;;;4145134;28;20096;-65
2023/05/05 08:04:57;;;;;;;12.75;1.80;;;22.70;58.10;;;;;;4144715;28;20045;-58
2023/05/05 08:07:19;;;;;;;7.05;1.83;;;22.70;58.40;;;;;;4145242;28;20087;-60
2023/05/05 08:09:42;;;;;;;7.40;2.08;;;22.70;58.10;;;;;;4144521;28;20049;-53
2023/05/05 08:12:04;;;;;;;7.78;1.67;;;22.70;58.00;;;;;;4144627;28;20061;-52
2023/05/05 08:14:27;;;;;;;8.65;2.25;;;22.70;57.70;;;;;;4144939;28;20038;-55
2023/05/05 08:16:49;;;;;;;14.48;2.55;;;22.70;57.70;;;;;;4144484;28;20390;-54
2023/05/05 08:19:12;;;;;;;6.50;1.60;;;22.60;57.70;;;;;;4143883;28;20065;-51
2023/05/05 08:21:34;;;;;;;6.43;1.80;;;22.60;57.60;;;;;;4137947;28;20061;-52
2023/05/05 08:23:57;;;;;;;4.40;1.40;;;22.60;57.60;;;;;;4133541;28;20200;-52
2023/05/05 08:26:21;;;;;;;6.18;1.40;;;22.60;57.60;;;;;;4140896;28;20045;-54
2023/05/05 08:28:44;;;;;;;4.40;1.27;;;22.60;57.60;;;;;;4144051;28;20532;-52
2023/05/05 08:31:07;;;;;;;4.88;1.67;;;22.50;57.50;;;;;;4142706;28;20048;-56
2023/05/05 08:33:29;;;;;;;3.53;1.60;;;22.60;57.60;;;;;;4141836;28;20042;-53
2023/05/05 08:35:52;;;;;;;4.28;1.50;;;22.50;57.50;;;;;;4135356;28;20120;-54
2023/05/05 08:38:14;;;;;;;3.83;1.35;;;22.50;57.40;;;;;;4143656;28;20049;-56
2023/05/05 08:40:39;;;;;;;4.28;1.40;;;22.50;57.50;;;;;;4142388;28;20453;-56
2023/05/05 08:43:02;;;;;;;1.95;1.33;;;22.50;57.50;;;;;;4141352;28;20478;-56
2023/05/05 08:45:25;;;;;;;4.85;1.52;;;22.40;57.40;;;;;;4144404;28;20107;-55
2023/05/05 08:47:47;;;;;;;4.20;1.38;;;22.40;57.40;;;;;;4140708;28;20122;-54
2023/05/05 08:50:11;;;;;;;1.73;1.17;;;22.40;57.40;;;;;;4140248;28;20561;-53
2023/05/05 08:52:42;;;;;;;3.83;1.30;;;22.40;57.50;;;;;;4141737;28;20349;-52
2023/05/05 08:55:25;;;;;;;2.35;1.08;;;22.40;57.60;;;;;;4140430;28;20034;-53
2023/05/05 08:57:55;;;;;;;1.48;1.08;;;22.30;57.60;;;;;;4128249;28;20047;-55
2023/05/05 09:00:21;;;;;;;2.05;1.25;;;22.30;57.60;;;;;;4141780;28;20042;-52
2023/05/05 09:02:44;;;;;;;4.78;1.40;;;22.30;57.70;;;;;;4139225;28;20046;-49
2023/05/05 09:05:07;;;;;;;2.15;1.10;;;22.30;57.70;;;;;;4143361;28;20109;-52
2023/05/05 09:07:29;;;;;;;1.92;1.13;;;22.20;57.70;;;;;;4138307;28;20409;-53
2023/05/05 09:09:52;;;;;;;2.58;1.20;;;22.20;57.80;;;;;;4139997;28;20521;-50
2023/05/05 09:12:16;;;;;;;2.97;1.35;;;22.20;58.50;;;;;;4138993;28;20041;-53
2023/05/05 09:14:39;;;;;;;1.35;0.85;;;22.20;58.00;;;;;;4141412;28;20076;-53
2023/05/05 09:17:03;;;;;;;2.50;1.20;;;22.10;57.90;;;;;;4139833;28;20100;-55
2023/05/05 09:19:24;;;;;;;;;;;22.10;58.00;;;;;;4137842;28;20042;-50
2023/05/05 09:21:48;;;;;;;2.78;1.10;;;22.10;58.00;;;;;;4143958;28;20113;-54
2023/05/05 09:24:14;;;;;;;2.40;1.27;;;22.10;58.10;;;;;;4139582;28;20068;-51
2023/05/05 09:26:40;;;;;;;2.20;1.10;;;22.10;58.20;;;;;;4143814;28;20421;-53
2023/05/05 09:29:03;;;;;;;2.38;1.13;;;22.10;58.30;;;;;;4141911;28;20541;-52
2023/05/05 09:31:26;;;;;;;1.65;1.00;;;22.00;58.30;;;;;;4142389;28;20045;-52
2023/05/05 09:33:49;;;;;;;1.60;1.00;;;22.00;58.30;;;;;;4143225;28;20375;-53
2023/05/05 09:36:11;;;;;;;2.25;1.20;;;22.00;58.40;;;;;;4141376;28;20264;-54
2023/05/05 09:38:35;;;;;;;1.50;1.02;;;22.00;58.40;;;;;;4139709;28;20042;-54
2023/05/05 09:40:57;;;;;;;2.47;1.05;;;22.00;58.50;;;;;;4138523;28;20537;-52
2023/05/05 09:43:24;;;;;;;2.13;1.10;;;21.90;58.50;;;;;;4131286;28;20124;-55
2023/05/05 09:45:47;;;;;;;2.90;1.10;;;21.90;58.60;;;;;;4126937;28;20456;-54
2023/05/05 09:48:30;;;;;;;2.47;1.00;;;21.90;58.60;;;;;;4128947;28;20044;-55
2023/05/05 09:50:54;;;;;;;2.53;1.23;;;21.90;58.70;;;;;;4133254;28;20061;-53
2023/05/05 09:53:16;;;;;;;2.17;1.17;;;21.80;58.70;;;;;;4128872;28;20068;-51
2023/05/05 09:55:40;;;;;;;2.72;1.48;;;21.80;58.70;;;;;;4118273;28;20119;-54
2023/05/05 09:58:19;;;;;;;2.00;1.15;;;21.80;58.80;;;;;;4136508;28;20032;-54
2023/05/05 10:00:42;;;;;;;3.13;1.30;;;21.80;58.80;;;;;;4132069;28;20065;-54
2023/05/05 10:03:05;;;;;;;2.67;1.25;;;21.80;58.70;;;;;;4134888;28;20053;-48
2023/05/05 10:05:27;;;;;;;2.28;1.30;;;21.70;58.90;;;;;;4131976;28;20032;-52
2023/05/05 10:07:50;;;;;;;1.42;1.00;;;21.70;58.90;;;;;;4129823;28;20046;-48
2023/05/05 10:10:15;;;;;;;2.58;1.38;;;21.70;58.80;;;;;;4136044;28;20095;-54
2023/05/05 10:12:38;;;;;;;1.77;1.10;;;21.70;58.80;;;;;;4134361;28;20045;-54
2023/05/05 10:15:02;;;;;;;2.88;1.30;;;21.70;59.00;;;;;;4133571;28;20076;-53
2023/05/05 10:17:27;;;;;;;4.53;1.67;;;21.70;59.00;;;;;;4140449;28;20451;-54
2023/05/05 10:19:59;;;;;;;3.35;1.55;;;21.70;59.10;;;;;;4139872;28;20038;-52
2023/05/05 10:22:23;;;;;;;2.85;1.55;;;21.60;59.10;;;;;;4141571;28;20125;-51
2023/05/05 10:24:57;;;;;;;2.13;1.45;;;21.60;58.90;;;;;;4139596;28;20054;-55
2023/05/05 10:27:22;;;;;;;2.92;1.30;;;21.60;59.00;;;;;;4131165;28;20097;-52
2023/05/05 10:30:03;;;;;;;2.63;1.42;;;21.60;59.10;;;;;;4142281;28;20035;-55
2023/05/05 10:32:34;;;;;;;2.88;1.73;;;21.60;59.20;;;;;;4138766;28;20049;-54
2023/05/05 10:35:03;;;;;;;2.90;1.50;;;21.60;59.20;;;;;;4133356;28;20815;-55
2023/05/05 10:37:27;;;;;;;5.32;1.83;;;21.60;59.20;;;;;;4129162;28;20045;-53
2023/05/05 10:39:51;;;;;;;2.55;1.42;;;21.60;59.30;;;;;;4133590;28;20100;-54
2023/05/05 10:42:14;;;;;;;2.45;1.63;;;21.60;59.30;;;;;;4139377;28;20121;-55
2023/05/05 10:44:37;;;;;;;3.50;1.70;;;21.60;59.30;;;;;;4116581;28;20050;-50
2023/05/05 10:46:59;;;;;;;3.45;1.80;;;21.50;59.40;;;;;;4138012;28;20398;-50
2023/05/05 10:49:35;;;;;;;3.45;1.83;;;21.50;59.30;;;;;;4134903;28;20505;-54
2023/05/05 10:52:22;;;;;;;2.38;1.48;;;21.50;59.40;;;;;;4137517;28;20044;-52
2023/05/05 10:54:54;;;;;;;2.97;1.75;;;21.50;59.40;;;;;;4136315;28;20045;-55
2023/05/05 10:57:20;;;;;;;2.80;1.50;;;21.40;59.30;;;;;;4134469;28;20047;-56
2023/05/05 10:59:43;;;;;;;3.13;1.70;;;21.50;59.40;;;;;;4137102;28;20037;-56
2023/05/05 11:02:25;;;;;;;2.78;1.90;;;21.40;59.30;;;;;;4137150;28;20127;-50
2023/05/05 11:05:23;;;;;;;2.92;1.80;;;21.40;59.40;;;;;;4134623;28;20053;-54
2023/05/05 11:07:48;;;;;;;3.95;1.80;;;21.40;59.40;;;;;;4070479;29;20472;-52
2023/05/05 11:10:13;;;;;;;2.88;1.60;;;21.40;59.40;;;;;;4130189;28;20038;-55
2023/05/05 11:12:54;;;;;;;3.03;1.90;;;21.40;59.50;;;;;;4136521;28;20402;-53
2023/05/05 11:15:25;;;;;;;2.58;1.65;;;21.40;59.40;;;;;;4130860;28;20423;-52
2023/05/05 11:17:48;;;;;;;2.75;1.80;;;21.40;59.50;;;;;;4120377;28;20034;-53
2023/05/05 11:20:10;;;;;;;3.35;1.83;;;21.40;59.50;;;;;;4139161;28;20038;-54
2023/05/05 11:22:52;;;;;;;2.78;1.65;;;21.30;59.50;;;;;;4141002;28;20038;-53
2023/05/05 11:25:37;;;;;;;3.13;1.85;;;21.30;59.50;;;;;;4141641;28;20087;-55
2023/05/05 11:28:11;;;;;;;3.20;1.55;;;21.30;59.60;;;;;;4145042;28;20520;-54
2023/05/05 11:30:35;;;;;;;2.90;1.58;;;21.30;60.20;;;;;;4143439;28;20056;-50
2023/05/05 11:33:25;;;;;;;3.28;2.13;;;21.30;59.70;;;;;;4142551;28;20037;-52
2023/05/05 11:35:58;;;;;;;3.28;1.95;;;21.30;59.60;;;;;;4127651;28;20038;-52
2023/05/05 11:38:25;;;;;;;3.13;1.70;;;21.30;59.70;;;;;;4144722;28;20127;-51
2023/05/05 11:40:49;;;;;;;3.30;1.73;;;21.20;59.60;;;;;;4142769;28;20049;-54
2023/05/05 11:43:11;;;;;;;3.33;1.60;;;21.20;59.60;;;;;;4140388;28;20049;-52
2023/05/05 11:45:34;;;;;;;3.00;2.03;;;21.20;59.70;;;;;;4142888;28;20037;-48
2023/05/05 11:48:25;;;;;;;3.38;1.55;;;21.20;59.70;;;;;;4123892;28;20023;-55
2023/05/05 11:50:48;;;;;;;3.75;1.80;;;21.20;59.70;;;;;;4142329;28;20046;-52
2023/05/05 11:53:13;;;;;;;4.82;2.30;;;21.20;60.40;;;;;;4126997;28;20779;-54
2023/05/05 11:55:35;;;;;;;2.85;1.60;;;21.20;59.80;;;;;;4145277;28;20073;-55
2023/05/05 11:57:57;;;;;;;4.20;1.83;;;21.10;59.70;;;;;;4142923;28;20137;-52
2023/05/05 12:00:30;;;;;;;3.42;2.00;;;21.10;59.70;;;;;;4145542;28;20453;-55
2023/05/05 12:02:56;;;;;;;2.80;1.65;;;21.10;59.70;;;;;;4142324;28;20572;-55
2023/05/05 12:05:20;;;;;;;2.65;1.70;;;21.10;59.80;;;;;;4146119;28;20042;-53
2023/05/05 12:07:42;;;;;;;4.40;2.13;;;21.10;59.80;;;;;;4129016;28;20503;-53
2023/05/05 12:10:06;;;;;;;3.28;1.98;;;21.10;59.80;;;;;;4140415;28;20478;-52
2023/05/05 12:12:39;;;;;;;4.20;1.77;;;21.10;59.90;;;;;;4144393;28;20038;-55
2023/05/05 12:15:02;;;;;;;3.40;1.77;;;21.00;59.80;;;;;;4140875;28;20036;-55
2023/05/05 12:17:34;;;;;;;2.85;1.90;;;21.00;59.80;;;;;;4144676;28;20076;-50
2023/05/05 12:19:57;;;;;;;3.58;1.80;;;21.00;59.90;;;;;;4145012;28;20038;-55
2023/05/05 12:22:24;;;;;;;2.97;1.83;;;21.00;59.90;;;;;;4141748;28;20042;-53
2023/05/05 12:25:02;;;;;;;3.47;1.80;;;21.00;59.90;;;;;;4137704;28;20426;-54
2023/05/05 12:27:27;;;;;;;3.22;1.58;;;21.00;59.90;;;;;;4139877;28;20046;-55
2023/05/05 12:29:50;;;;;;;2.72;1.80;;;21.00;60.00;;;;;;4141980;28;20049;-55
2023/05/05 12:32:26;;;;;;;3.83;1.95;;;20.90;60.00;;;;;;4145894;28;20038;-54
2023/05/05 12:34:53;;;;;;;3.10;1.80;;;20.90;60.00;;;;;;4144133;28;20958;-54
2023/05/05 12:37:17;;;;;;;2.65;1.73;;;20.90;60.00;;;;;;4143794;28;20049;-56
2023/05/05 12:39:40;;;;;;;3.13;1.90;;;20.90;60.00;;;;;;4125400;28;20574;-55